Latest Weather Observations for Lord Howe Island Windy Point

IDN60801

Issued at 5:02 am EDT Friday 24 March 2017 (issued every 30 minutes, with the page automatically refreshed every 10 minutes)

About weather observations | Map of weather stations | Latest weather observations for NSW | Other Formats
Station Details ID: 200715 Name: LORD HOWE ISLAND WINDY POINT Lat: -31.54 Lon: 159.07 Height: 4.0 m
Data from the previous 72 hours. | See also: Recent months for locations in New South Wales
Date/Time
EDT
Temp
°C
App
Temp
°C
Dew
Point
°C
Rel
Hum
%
Delta-T
°C
Wind Press
QNH
hPa
Press
MSL
hPa
Rain since
9am
mm
Dir  Spd
km/h
Gust
km/h
Spd
kts
Gust
kts
24/05:00am - - - - - SSW 15 19 8 10 - - -
24/04:30am - - - - - SW 11 15 6 8 - - -
24/04:00am - - - - - SW 9 11 5 6 - - -
24/03:30am - - - - - WSW 13 15 7 8 - - -
24/03:00am - - - - - W 17 20 9 11 - - -
24/02:30am - - - - - WSW 15 17 8 9 - - -
24/02:00am - - - - - WNW 20 22 11 12 - - -
24/01:30am - - - - - W 19 26 10 14 - - -
24/01:00am - - - - - W 22 26 12 14 - - -
24/12:30am - - - - - W 20 24 11 13 - - -
24/12:00am - - - - - W 20 24 11 13 - - -
 
Date/Time
EDT
Temp
°C
App
Temp
°C
Dew
Point
°C
Rel
Hum
%
Delta-T
°C
Wind Press
QNH
hPa
Press
MSL
hPa
Rain since
9am
mm
Dir  Spd
km/h
Gust
km/h
Spd
kts
Gust
kts
23/11:30pm - - - - - W 24 28 13 15 - - -
23/11:00pm - - - - - W 22 26 12 14 - - -
23/10:30pm - - - - - WSW 22 26 12 14 - - -
23/10:00pm - - - - - W 22 24 12 13 - - -
23/09:30pm - - - - - W 30 35 16 19 - - -
23/09:00pm - - - - - W 20 28 11 15 - - -
23/08:30pm - - - - - WNW 20 30 11 16 - - -
23/08:23pm - - - - - WNW 28 46 15 25 - - -
23/08:00pm - - - - - NNW 22 33 12 18 - - -
23/07:30pm - - - - - NW 20 28 11 15 - - -
23/07:00pm - - - - - NW 22 35 12 19 - - -
23/06:30pm - - - - - NNW 22 32 12 17 - - -
23/06:00pm - - - - - NW 24 39 13 21 - - -
23/05:30pm - - - - - NW 26 33 14 18 - - -
23/05:00pm - - - - - NW 22 32 12 17 - - -
23/04:30pm - - - - - NW 28 35 15 19 - - -
23/04:00pm - - - - - NW 26 37 14 20 - - -
23/03:30pm - - - - - NNW 24 33 13 18 - - -
23/03:00pm - - - - - NW 24 41 13 22 - - -
23/02:30pm - - - - - NW 24 33 13 18 - - -
23/02:00pm - - - - - NW 26 35 14 19 - - -
23/01:30pm - - - - - NW 26 39 14 21 - - -
23/01:00pm - - - - - NW 22 35 12 19 - - -
23/12:30pm - - - - - NW 20 30 11 16 - - -
23/12:00pm - - - - - NW 26 39 14 21 - - -
23/11:30am - - - - - NW 20 30 11 16 - - -
23/11:00am - - - - - NW 17 35 9 19 - - -
23/10:30am - - - - - NW 22 35 12 19 - - -
23/10:00am - - - - - NW 22 35 12 19 - - -
23/09:30am - - - - - NW 20 43 11 23 - - -
23/09:00am - - - - - NW 19 30 10 16 - - -
23/08:30am - - - - - NW 22 37 12 20 - - -
23/08:00am - - - - - NNW 15 26 8 14 - - -
23/07:30am - - - - - NW 15 24 8 13 - - -
23/07:00am - - - - - NW 15 28 8 15 - - -
23/06:30am - - - - - NW 13 20 7 11 - - -
23/06:00am - - - - - NW 13 26 7 14 - - -
23/05:30am - - - - - NW 15 22 8 12 - - -
23/05:00am - - - - - NNW 9 15 5 8 - - -
23/04:30am - - - - - NW 17 28 9 15 - - -
23/04:00am - - - - - NNW 9 17 5 9 - - -
23/03:30am - - - - - NW 7 15 4 8 - - -
23/03:00am - - - - - W 6 15 3 8 - - -
23/02:30am - - - - - NNE 2 13 1 7 - - -
23/02:00am - - - - - NW 9 13 5 7 - - -
23/01:30am - - - - - NW 11 17 6 9 - - -
23/01:00am - - - - - NW 7 17 4 9 - - -
23/12:30am - - - - - NW 7 17 4 9 - - -
23/12:00am - - - - - ESE 4 9 2 5 - - -
 
Date/Time
EDT
Temp
°C
App
Temp
°C
Dew
Point
°C
Rel
Hum
%
Delta-T
°C
Wind Press
QNH
hPa
Press
MSL
hPa
Rain since
9am
mm
Dir  Spd
km/h
Gust
km/h
Spd
kts
Gust
kts
22/11:30pm - - - - - NNE 6 13 3 7 - - -
22/11:00pm - - - - - WSW 6 13 3 7 - - -
22/10:30pm - - - - - NNE 9 17 5 9 - - -
22/10:00pm - - - - - NW 7 15 4 8 - - -
22/09:30pm - - - - - NE 6 15 3 8 - - -
22/09:00pm - - - - - NE 6 9 3 5 - - -
22/08:30pm - - - - - E 7 13 4 7 - - -
22/08:00pm - - - - - NNE 9 19 5 10 - - -
22/07:30pm - - - - - NNE 9 17 5 9 - - -
22/07:00pm - - - - - NNE 9 15 5 8 - - -
22/06:30pm - - - - - NE 9 17 5 9 - - -
22/06:00pm - - - - - NNE 9 17 5 9 - - -
22/05:30pm - - - - - NNE 9 17 5 9 - - -
22/05:00pm - - - - - NNE 9 15 5 8 - - -
22/04:30pm - - - - - NNE 11 19 6 10 - - -
22/04:00pm - - - - - NNE 11 17 6 9 - - -
22/03:30pm - - - - - NNE 11 19 6 10 - - -
22/03:00pm - - - - - N 13 19 7 10 - - -
22/02:30pm - - - - - N 15 24 8 13 - - -
22/02:00pm - - - - - N 17 26 9 14 - - -
22/01:30pm - - - - - NNE 11 17 6 9 - - -
22/01:00pm - - - - - N 15 22 8 12 - - -
22/12:30pm - - - - - N 15 22 8 12 - - -
22/12:00pm - - - - - NNE 15 24 8 13 - - -
22/11:30am - - - - - N 17 26 9 14 - - -
22/11:00am - - - - - N 19 26 10 14 - - -
22/10:30am - - - - - N 15 24 8 13 - - -
22/10:00am - - - - - N 15 26 8 14 - - -
22/09:30am - - - - - N 15 22 8 12 - - -
22/09:00am - - - - - NNE 13 20 7 11 - - -
22/08:30am - - - - - NNE 13 19 7 10 - - -
22/08:00am - - - - - NNE 11 17 6 9 - - -
22/07:30am - - - - - NNE 11 17 6 9 - - -
22/07:00am - - - - - NNE 11 19 6 10 - - -
22/06:30am - - - - - NNE 9 17 5 9 - - -
22/06:00am - - - - - NNE 11 19 6 10 - - -
22/05:30am - - - - - NNE 9 15 5 8 - - -
22/05:00am - - - - - NNE 11 19 6 10 - - -
22/04:30am - - - - - NNE 11 17 6 9 - - -
22/04:00am - - - - - NNE 9 19 5 10 - - -
22/03:30am - - - - - NNE 17 30 9 16 - - -
22/03:00am - - - - - NNE 13 20 7 11 - - -
22/02:30am - - - - - NNE 13 24 7 13 - - -
22/02:00am - - - - - NE 13 24 7 13 - - -
22/01:30am - - - - - NNE 11 22 6 12 - - -
22/01:00am - - - - - NNE 11 22 6 12 - - -
22/12:30am - - - - - NE 13 24 7 13 - - -
22/12:00am - - - - - E 9 19 5 10 - - -
 
Date/Time
EDT
Temp
°C
App
Temp
°C
Dew
Point
°C
Rel
Hum
%
Delta-T
°C
Wind Press
QNH
hPa
Press
MSL
hPa
Rain since
9am
mm
Dir  Spd
km/h
Gust
km/h
Spd
kts
Gust
kts
21/11:30pm - - - - - ENE 9 15 5 8 - - -
21/11:00pm - - - - - NE 11 20 6 11 - - -
21/10:30pm - - - - - E 11 22 6 12 - - -
21/10:00pm - - - - - NNE 11 24 6 13 - - -
21/09:30pm - - - - - ENE 13 28 7 15 - - -
21/09:00pm - - - - - E 13 24 7 13 - - -
21/08:30pm - - - - - E 19 33 10 18 - - -
21/08:00pm - - - - - ENE 15 28 8 15 - - -
21/07:30pm - - - - - ENE 11 20 6 11 - - -
21/07:00pm - - - - - NE 11 24 6 13 - - -
21/06:30pm - - - - - E 9 20 5 11 - - -
21/06:00pm - - - - - E 9 17 5 9 - - -
21/05:30pm - - - - - E 15 28 8 15 - - -
21/05:00pm - - - - - E 15 30 8 16 - - -
21/04:30pm - - - - - ENE 24 33 13 18 - - -
21/04:00pm - - - - - ENE 24 32 13 17 - - -
21/03:30pm - - - - - ENE 22 30 12 16 - - -
21/03:00pm - - - - - ENE 22 30 12 16 - - -
21/02:30pm - - - - - ENE 20 33 11 18 - - -
21/02:00pm - - - - - ENE 22 37 12 20 - - -
21/01:30pm - - - - - E 24 35 13 19 - - -
21/01:00pm - - - - - ENE 26 35 14 19 - - -
21/12:30pm - - - - - ENE 26 35 14 19 - - -
21/12:00pm - - - - - ENE 26 33 14 18 - - -
21/11:30am - - - - - ENE 24 35 13 19 - - -
21/11:00am - - - - - ENE 26 33 14 18 - - -
21/10:30am - - - - - ENE 26 39 14 21 - - -
21/10:00am - - - - - ENE 24 30 13 16 - - -
21/09:30am - - - - - ENE 24 39 13 21 - - -
21/09:00am - - - - - ENE 22 30 12 16 - - -
21/08:30am - - - - - ENE 24 32 13 17 - - -
21/08:00am - - - - - ENE 22 35 12 19 - - -
21/07:30am - - - - - ENE 20 28 11 15 - - -
21/07:00am - - - - - ENE 22 28 12 15 - - -
21/06:30am - - - - - ENE 20 30 11 16 - - -
21/06:00am - - - - - ENE 20 30 11 16 - - -
21/05:30am - - - - - ENE 22 32 12 17 - - -

Other Formats:

Comma delimited format used in spreadsheet applications
http://www.bom.gov.au/fwo/IDN60801/IDN60801.95995.axf

JavaScript Object Notation format (JSON) in row-major order
http://www.bom.gov.au/fwo/IDN60801/IDN60801.95995.json